Impacts METAR Board
IDs:

KMIA - Miami Intl, FL, US

Updated at: 2200 UTC 20 Oct 2018
Potential Impact None Slight Moderate High
Time 20/10Z 20/11Z 20/12Z 20/13Z 20/14Z 20/15Z 20/16Z 20/17Z 20/18Z 20/19Z 20/20Z 20/21Z 20/22Z
Temp76 77 76 81 83 84 86 86 86 85 86 85 83
Dewpt73 74 74 75 75 74 73 74 74 74 75 76 75
Altim30.03 30.04 30.05 30.06 30.08 30.08 30.06 30.03 30.00 29.97 29.96 29.95 29.95
VIS10 10 10 10 10 10 10 10 10 10 10 10 10
CIG-- -- -- -- -- -- -- -- 35 -- -- -- --
CoverFEWSCTFEWFEWSCTSCTSCTSCTBKNFEWSCTFEWFEW
FltCatVFRVFRVFRVFRVFRVFRVFRVFRVFRVFRVFRVFRVFR
WX--------------------------
WDir0000080001200150130140
WSpd0 0 0 0 3 3 0 4 9 5 7 9 6
WGst-- -- -- -- -- -- -- -- -- -- -- -- --
Raw hourly METARs
KMIA 200953Z 00000KT 10SM FEW029 24/23 A3003 RMK AO2 SLP170 T02440228
KMIA 201053Z 00000KT 10SM FEW025 SCT060 25/23 A3004 RMK AO2 SLP172 T02500233
KMIA 201153Z 00000KT 10SM FEW025 FEW070 24/23 A3005 RMK AO2 SLP176 T02440233 10250 20228 53008
KMIA 201253Z 00000KT 10SM FEW025 FEW070 27/24 A3006 RMK AO2 SLP181 T02720239
KMIA 201353Z VRB03KT 10SM FEW023 SCT070 28/24 A3008 RMK AO2 SLP186 T02830239
KMIA 201453Z 08003KT 10SM SCT026 SCT070 29/23 A3008 RMK AO2 SLP185 T02890233 50009
KMIA 201553Z 00000KT 10SM SCT030 SCT060 30/23 A3006 RMK AO2 SLP180 T03000228
KMIA 201653Z VRB04KT 10SM SCT030 SCT070 30/23 A3003 RMK AO2 SLP170 T03000233
KMIA 201753Z 12009KT 10SM BKN035 30/23 A3000 RMK AO2 SLP159 T03000233 10317 20244 58026
KMIA 201853Z VRB05KT 10SM FEW034 29/23 A2997 RMK AO2 SLP149 T02940233
KMIA 201953Z 15007KT 110V180 10SM SCT036 30/24 A2996 RMK AO2 SLP145 T03000239
KMIA 202053Z 13009KT 10SM FEW036 29/24 A2995 RMK AO2 SLP142 T02940244 56017
KMIA 202153Z 14006KT 10SM FEW036 28/24 A2995 RMK AO2 SLP142 T02830239



Page loaded:  22:06 UTC  |   03:06 PM Pacific  |   04:06 PM Mountain  |   05:06 PM Central  |   06:06 PM Eastern

 

ADVISORIES

FORECASTS

FORECASTS

OBSERVATIONS

USER TOOLS

ABOUT US